sensor_id;sensor_type;location;lat;lon;timestamp;temperature;humidity
52575;DHT22;38468;48.114;-1.684;2022-12-29T00:01:24;11.40;78.40
52575;DHT22;38468;48.114;-1.684;2022-12-29T00:03:24;11.40;78.40
52575;DHT22;38468;48.114;-1.684;2022-12-29T00:05:25;11.40;78.60
52575;DHT22;38468;48.114;-1.684;2022-12-29T00:07:26;11.40;78.60
52575;DHT22;38468;48.114;-1.684;2022-12-29T00:09:27;11.40;78.80
52575;DHT22;38468;48.114;-1.684;2022-12-29T00:11:27;11.40;79.10
52575;DHT22;38468;48.114;-1.684;2022-12-29T00:13:28;11.40;79.20
52575;DHT22;38468;48.114;-1.684;2022-12-29T00:15:47;11.40;79.30
52575;DHT22;38468;48.114;-1.684;2022-12-29T00:17:48;11.40;79.80
52575;DHT22;38468;48.114;-1.684;2022-12-29T00:19:49;11.40;80.00
52575;DHT22;38468;48.114;-1.684;2022-12-29T00:22:12;11.40;80.10
52575;DHT22;38468;48.114;-1.684;2022-12-29T00:24:32;11.40;80.40
52575;DHT22;38468;48.114;-1.684;2022-12-29T00:26:35;11.40;80.70
52575;DHT22;38468;48.114;-1.684;2022-12-29T00:28:55;11.40;80.80
52575;DHT22;38468;48.114;-1.684;2022-12-29T00:31:14;11.30;80.90
52575;DHT22;38468;48.114;-1.684;2022-12-29T00:33:33;11.40;80.90
52575;DHT22;38468;48.114;-1.684;2022-12-29T00:36:16;11.30;80.90
52575;DHT22;38468;48.114;-1.684;2022-12-29T00:38:15;11.30;80.90
52575;DHT22;38468;48.114;-1.684;2022-12-29T00:40:34;11.30;80.90
52575;DHT22;38468;48.114;-1.684;2022-12-29T00:42:53;11.30;80.70
52575;DHT22;38468;48.114;-1.684;2022-12-29T00:45:12;11.40;80.20
52575;DHT22;38468;48.114;-1.684;2022-12-29T00:47:13;11.40;80.00
52575;DHT22;38468;48.114;-1.684;2022-12-29T00:49:14;11.40;80.10
52575;DHT22;38468;48.114;-1.684;2022-12-29T00:51:33;11.40;80.00
52575;DHT22;38468;48.114;-1.684;2022-12-29T00:53:34;11.40;79.90
52575;DHT22;38468;48.114;-1.684;2022-12-29T00:55:37;11.40;79.80
52575;DHT22;38468;48.114;-1.684;2022-12-29T00:57:38;11.40;79.70
52575;DHT22;38468;48.114;-1.684;2022-12-29T00:59:40;11.40;79.70
52575;DHT22;38468;48.114;-1.684;2022-12-29T01:01:41;11.40;79.50
52575;DHT22;38468;48.114;-1.684;2022-12-29T01:03:42;11.40;79.40
52575;DHT22;38468;48.114;-1.684;2022-12-29T01:05:42;11.40;79.40
52575;DHT22;38468;48.114;-1.684;2022-12-29T01:07:43;11.30;78.80
52575;DHT22;38468;48.114;-1.684;2022-12-29T01:09:44;11.30;79.00
52575;DHT22;38468;48.114;-1.684;2022-12-29T01:12:04;11.30;78.90
52575;DHT22;38468;48.114;-1.684;2022-12-29T01:14:05;11.20;78.60
52575;DHT22;38468;48.114;-1.684;2022-12-29T01:16:07;11.20;78.40
52575;DHT22;38468;48.114;-1.684;2022-12-29T01:18:07;11.20;78.60
52575;DHT22;38468;48.114;-1.684;2022-12-29T01:20:08;11.20;78.50
52575;DHT22;38468;48.114;-1.684;2022-12-29T01:22:09;11.20;78.60
52575;DHT22;38468;48.114;-1.684;2022-12-29T01:24:10;11.20;78.30
52575;DHT22;38468;48.114;-1.684;2022-12-29T01:26:12;11.20;78.50
52575;DHT22;38468;48.114;-1.684;2022-12-29T01:28:14;11.10;78.10
52575;DHT22;38468;48.114;-1.684;2022-12-29T01:30:14;11.10;77.70
52575;DHT22;38468;48.114;-1.684;2022-12-29T01:32:15;11.10;77.90
52575;DHT22;38468;48.114;-1.684;2022-12-29T01:34:16;11.10;77.50
52575;DHT22;38468;48.114;-1.684;2022-12-29T01:36:18;11.10;77.80
52575;DHT22;38468;48.114;-1.684;2022-12-29T01:38:18;11.10;77.00
52575;DHT22;38468;48.114;-1.684;2022-12-29T01:40:19;11.10;76.60
52575;DHT22;38468;48.114;-1.684;2022-12-29T01:42:24;11.10;76.40
52575;DHT22;38468;48.114;-1.684;2022-12-29T01:46:48;11.10;74.60
52575;DHT22;38468;48.114;-1.684;2022-12-29T01:48:54;11.10;75.00
52575;DHT22;38468;48.114;-1.684;2022-12-29T01:50:55;11.00;74.50
52575;DHT22;38468;48.114;-1.684;2022-12-29T01:53:07;11.00;73.80
52575;DHT22;38468;48.114;-1.684;2022-12-29T01:55:09;11.00;73.80
52575;DHT22;38468;48.114;-1.684;2022-12-29T01:57:13;11.00;72.70
52575;DHT22;38468;48.114;-1.684;2022-12-29T01:59:20;11.00;72.30
52575;DHT22;38468;48.114;-1.684;2022-12-29T02:01:23;11.00;72.40
52575;DHT22;38468;48.114;-1.684;2022-12-29T02:03:25;11.00;72.10
52575;DHT22;38468;48.114;-1.684;2022-12-29T02:05:33;11.00;72.20
52575;DHT22;38468;48.114;-1.684;2022-12-29T02:07:37;11.00;71.80
52575;DHT22;38468;48.114;-1.684;2022-12-29T02:09:38;10.90;72.10
52575;DHT22;38468;48.114;-1.684;2022-12-29T02:11:39;11.00;72.30
52575;DHT22;38468;48.114;-1.684;2022-12-29T02:13:40;10.90;72.50
52575;DHT22;38468;48.114;-1.684;2022-12-29T02:15:59;10.90;72.70
52575;DHT22;38468;48.114;-1.684;2022-12-29T02:23:27;11.00;73.80
52575;DHT22;38468;48.114;-1.684;2022-12-29T02:25:54;10.90;73.80
52575;DHT22;38468;48.114;-1.684;2022-12-29T02:31:04;10.90;74.60
52575;DHT22;38468;48.114;-1.684;2022-12-29T02:35:35;10.90;74.90
52575;DHT22;38468;48.114;-1.684;2022-12-29T02:37:58;10.90;75.10
52575;DHT22;38468;48.114;-1.684;2022-12-29T02:40:29;10.90;75.40
52575;DHT22;38468;48.114;-1.684;2022-12-29T02:42:59;10.90;75.30
52575;DHT22;38468;48.114;-1.684;2022-12-29T02:53:54;10.90;75.50
52575;DHT22;38468;48.114;-1.684;2022-12-29T02:56:14;10.90;75.50
52575;DHT22;38468;48.114;-1.684;2022-12-29T02:58:23;10.90;75.50
52575;DHT22;38468;48.114;-1.684;2022-12-29T03:00:29;10.90;75.40
52575;DHT22;38468;48.114;-1.684;2022-12-29T03:11:59;10.90;75.80
52575;DHT22;38468;48.114;-1.684;2022-12-29T03:17:22;10.90;76.10
52575;DHT22;38468;48.114;-1.684;2022-12-29T03:19:30;10.80;76.40
52575;DHT22;38468;48.114;-1.684;2022-12-29T03:21:44;10.80;76.60
52575;DHT22;38468;48.114;-1.684;2022-12-29T03:24:05;10.90;76.40
52575;DHT22;38468;48.114;-1.684;2022-12-29T03:26:09;10.80;76.40
52575;DHT22;38468;48.114;-1.684;2022-12-29T03:28:21;10.80;76.50
52575;DHT22;38468;48.114;-1.684;2022-12-29T03:30:23;10.80;76.50
52575;DHT22;38468;48.114;-1.684;2022-12-29T03:32:28;10.90;76.50
52575;DHT22;38468;48.114;-1.684;2022-12-29T03:34:32;10.80;76.40
52575;DHT22;38468;48.114;-1.684;2022-12-29T03:36:47;10.80;76.40
52575;DHT22;38468;48.114;-1.684;2022-12-29T03:39:02;10.70;76.50
52575;DHT22;38468;48.114;-1.684;2022-12-29T03:41:07;10.80;76.20
52575;DHT22;38468;48.114;-1.684;2022-12-29T03:43:09;10.70;76.20
52575;DHT22;38468;48.114;-1.684;2022-12-29T03:45:10;10.70;76.40
52575;DHT22;38468;48.114;-1.684;2022-12-29T03:47:12;10.70;76.30
52575;DHT22;38468;48.114;-1.684;2022-12-29T03:49:13;10.70;76.10
52575;DHT22;38468;48.114;-1.684;2022-12-29T03:51:14;10.60;76.30
52575;DHT22;38468;48.114;-1.684;2022-12-29T03:53:15;10.60;76.30
52575;DHT22;38468;48.114;-1.684;2022-12-29T03:55:15;10.70;76.20
52575;DHT22;38468;48.114;-1.684;2022-12-29T03:57:16;10.60;76.10
52575;DHT22;38468;48.114;-1.684;2022-12-29T03:59:17;10.50;76.50
52575;DHT22;38468;48.114;-1.684;2022-12-29T04:01:17;10.60;76.30
52575;DHT22;38468;48.114;-1.684;2022-12-29T04:03:18;10.50;76.50
52575;DHT22;38468;48.114;-1.684;2022-12-29T04:05:18;10.50;76.60
52575;DHT22;38468;48.114;-1.684;2022-12-29T04:07:19;10.50;76.70
52575;DHT22;38468;48.114;-1.684;2022-12-29T04:09:20;10.40;76.80
52575;DHT22;38468;48.114;-1.684;2022-12-29T04:11:22;10.50;77.10
52575;DHT22;38468;48.114;-1.684;2022-12-29T04:13:23;10.40;77.10
52575;DHT22;38468;48.114;-1.684;2022-12-29T04:15:23;10.50;77.10
52575;DHT22;38468;48.114;-1.684;2022-12-29T04:17:24;10.50;77.20
52575;DHT22;38468;48.114;-1.684;2022-12-29T04:19:25;10.50;77.30
52575;DHT22;38468;48.114;-1.684;2022-12-29T04:21:25;10.40;77.60
52575;DHT22;38468;48.114;-1.684;2022-12-29T04:23:31;10.40;77.70
52575;DHT22;38468;48.114;-1.684;2022-12-29T04:25:33;10.40;77.90
52575;DHT22;38468;48.114;-1.684;2022-12-29T04:27:33;10.40;78.00
52575;DHT22;38468;48.114;-1.684;2022-12-29T04:29:34;10.40;78.00
52575;DHT22;38468;48.114;-1.684;2022-12-29T04:31:35;10.40;78.20
52575;DHT22;38468;48.114;-1.684;2022-12-29T04:33:35;10.40;78.20
52575;DHT22;38468;48.114;-1.684;2022-12-29T04:35:36;10.40;78.40
52575;DHT22;38468;48.114;-1.684;2022-12-29T04:37:37;10.40;78.50
52575;DHT22;38468;48.114;-1.684;2022-12-29T04:39:37;10.40;78.70
52575;DHT22;38468;48.114;-1.684;2022-12-29T04:41:38;10.40;78.60
52575;DHT22;38468;48.114;-1.684;2022-12-29T04:43:38;10.40;78.60
52575;DHT22;38468;48.114;-1.684;2022-12-29T04:45:43;10.30;78.70
52575;DHT22;38468;48.114;-1.684;2022-12-29T04:47:44;10.40;78.70
52575;DHT22;38468;48.114;-1.684;2022-12-29T04:49:45;10.30;78.70
52575;DHT22;38468;48.114;-1.684;2022-12-29T04:51:45;10.30;78.70
52575;DHT22;38468;48.114;-1.684;2022-12-29T04:53:46;10.30;78.80
52575;DHT22;38468;48.114;-1.684;2022-12-29T04:55:51;10.20;78.90
52575;DHT22;38468;48.114;-1.684;2022-12-29T04:57:52;10.20;78.80
52575;DHT22;38468;48.114;-1.684;2022-12-29T04:59:53;10.20;78.90
52575;DHT22;38468;48.114;-1.684;2022-12-29T05:01:54;10.10;78.80
52575;DHT22;38468;48.114;-1.684;2022-12-29T05:03:54;10.10;78.80
52575;DHT22;38468;48.114;-1.684;2022-12-29T05:05:56;10.10;78.70
52575;DHT22;38468;48.114;-1.684;2022-12-29T05:07:57;10.10;78.60
52575;DHT22;38468;48.114;-1.684;2022-12-29T05:09:57;10.10;78.30
52575;DHT22;38468;48.114;-1.684;2022-12-29T05:11:58;10.10;78.20
52575;DHT22;38468;48.114;-1.684;2022-12-29T05:13:59;10.10;78.20
52575;DHT22;38468;48.114;-1.684;2022-12-29T05:15:59;10.10;78.00
52575;DHT22;38468;48.114;-1.684;2022-12-29T05:18:00;10.10;78.20
52575;DHT22;38468;48.114;-1.684;2022-12-29T05:20:00;10.00;78.20
52575;DHT22;38468;48.114;-1.684;2022-12-29T05:22:01;10.00;78.10
52575;DHT22;38468;48.114;-1.684;2022-12-29T05:24:02;10.00;78.20
52575;DHT22;38468;48.114;-1.684;2022-12-29T05:26:03;10.00;78.30
52575;DHT22;38468;48.114;-1.684;2022-12-29T05:28:03;10.00;78.30
52575;DHT22;38468;48.114;-1.684;2022-12-29T05:30:05;10.00;78.20
52575;DHT22;38468;48.114;-1.684;2022-12-29T05:32:06;10.00;78.10
52575;DHT22;38468;48.114;-1.684;2022-12-29T05:34:06;10.00;78.30
52575;DHT22;38468;48.114;-1.684;2022-12-29T05:36:08;10.00;78.20
52575;DHT22;38468;48.114;-1.684;2022-12-29T05:38:09;10.00;78.40
52575;DHT22;38468;48.114;-1.684;2022-12-29T05:40:10;10.00;78.20
52575;DHT22;38468;48.114;-1.684;2022-12-29T05:42:11;10.00;78.20
52575;DHT22;38468;48.114;-1.684;2022-12-29T05:44:12;9.90;78.30
52575;DHT22;38468;48.114;-1.684;2022-12-29T05:46:12;9.90;78.40
52575;DHT22;38468;48.114;-1.684;2022-12-29T05:48:13;9.90;78.40
52575;DHT22;38468;48.114;-1.684;2022-12-29T05:50:14;9.90;78.10
52575;DHT22;38468;48.114;-1.684;2022-12-29T05:52:14;9.90;77.90
52575;DHT22;38468;48.114;-1.684;2022-12-29T05:54:15;9.80;78.00
52575;DHT22;38468;48.114;-1.684;2022-12-29T05:56:16;9.80;77.90
52575;DHT22;38468;48.114;-1.684;2022-12-29T05:58:17;9.80;77.80
52575;DHT22;38468;48.114;-1.684;2022-12-29T06:00:17;9.80;77.60
52575;DHT22;38468;48.114;-1.684;2022-12-29T06:02:18;9.80;77.40
52575;DHT22;38468;48.114;-1.684;2022-12-29T06:04:19;9.80;77.30
52575;DHT22;38468;48.114;-1.684;2022-12-29T06:06:19;9.80;77.30
52575;DHT22;38468;48.114;-1.684;2022-12-29T06:08:20;9.70;77.30
52575;DHT22;38468;48.114;-1.684;2022-12-29T06:10:21;9.70;77.10
52575;DHT22;38468;48.114;-1.684;2022-12-29T06:12:22;9.70;77.30
52575;DHT22;38468;48.114;-1.684;2022-12-29T06:14:22;9.70;77.40
52575;DHT22;38468;48.114;-1.684;2022-12-29T06:16:23;9.70;77.40
52575;DHT22;38468;48.114;-1.684;2022-12-29T06:18:24;9.70;77.40
52575;DHT22;38468;48.114;-1.684;2022-12-29T06:20:24;9.70;77.20
52575;DHT22;38468;48.114;-1.684;2022-12-29T06:22:25;9.70;77.30
52575;DHT22;38468;48.114;-1.684;2022-12-29T06:24:26;9.70;77.30
52575;DHT22;38468;48.114;-1.684;2022-12-29T06:26:26;9.60;77.30
52575;DHT22;38468;48.114;-1.684;2022-12-29T06:28:27;9.60;77.40
52575;DHT22;38468;48.114;-1.684;2022-12-29T06:30:28;9.60;77.40
52575;DHT22;38468;48.114;-1.684;2022-12-29T06:32:28;9.60;77.30
52575;DHT22;38468;48.114;-1.684;2022-12-29T06:34:29;9.50;77.50
52575;DHT22;38468;48.114;-1.684;2022-12-29T06:36:30;9.50;77.40
52575;DHT22;38468;48.114;-1.684;2022-12-29T06:38:30;9.50;77.50
52575;DHT22;38468;48.114;-1.684;2022-12-29T06:40:32;9.50;77.60
52575;DHT22;38468;48.114;-1.684;2022-12-29T06:42:32;9.40;77.70
52575;DHT22;38468;48.114;-1.684;2022-12-29T06:44:33;9.40;78.00
52575;DHT22;38468;48.114;-1.684;2022-12-29T06:46:34;9.40;78.20
52575;DHT22;38468;48.114;-1.684;2022-12-29T06:48:34;9.40;78.20
52575;DHT22;38468;48.114;-1.684;2022-12-29T06:50:35;9.40;78.20
52575;DHT22;38468;48.114;-1.684;2022-12-29T06:52:36;9.40;78.20
52575;DHT22;38468;48.114;-1.684;2022-12-29T06:54:36;9.40;78.30
52575;DHT22;38468;48.114;-1.684;2022-12-29T06:56:37;9.40;78.30
52575;DHT22;38468;48.114;-1.684;2022-12-29T06:58:38;9.40;78.60
52575;DHT22;38468;48.114;-1.684;2022-12-29T07:00:38;9.40;78.50
52575;DHT22;38468;48.114;-1.684;2022-12-29T07:02:40;9.40;78.40
52575;DHT22;38468;48.114;-1.684;2022-12-29T07:04:41;9.40;78.40
52575;DHT22;38468;48.114;-1.684;2022-12-29T07:06:41;9.40;78.20
52575;DHT22;38468;48.114;-1.684;2022-12-29T07:08:42;9.40;78.40
52575;DHT22;38468;48.114;-1.684;2022-12-29T07:10:43;9.40;78.50
52575;DHT22;38468;48.114;-1.684;2022-12-29T07:12:44;9.40;78.50
52575;DHT22;38468;48.114;-1.684;2022-12-29T07:14:44;9.40;78.60
52575;DHT22;38468;48.114;-1.684;2022-12-29T07:16:45;9.40;78.70
52575;DHT22;38468;48.114;-1.684;2022-12-29T07:18:46;9.40;78.80
52575;DHT22;38468;48.114;-1.684;2022-12-29T07:20:46;9.40;78.80
52575;DHT22;38468;48.114;-1.684;2022-12-29T07:22:47;9.40;78.80
52575;DHT22;38468;48.114;-1.684;2022-12-29T07:24:47;9.40;78.80
52575;DHT22;38468;48.114;-1.684;2022-12-29T07:26:48;9.40;78.80
52575;DHT22;38468;48.114;-1.684;2022-12-29T07:28:49;9.40;78.70
52575;DHT22;38468;48.114;-1.684;2022-12-29T07:30:49;9.40;78.80
52575;DHT22;38468;48.114;-1.684;2022-12-29T07:32:50;9.40;78.90
52575;DHT22;38468;48.114;-1.684;2022-12-29T07:34:50;9.40;78.80
52575;DHT22;38468;48.114;-1.684;2022-12-29T07:36:51;9.30;78.90
52575;DHT22;38468;48.114;-1.684;2022-12-29T07:38:52;9.40;78.70
52575;DHT22;38468;48.114;-1.684;2022-12-29T07:40:57;9.40;78.50
52575;DHT22;38468;48.114;-1.684;2022-12-29T07:42:58;9.40;78.50
52575;DHT22;38468;48.114;-1.684;2022-12-29T07:44:58;9.40;78.50
52575;DHT22;38468;48.114;-1.684;2022-12-29T07:46:59;9.30;78.70
52575;DHT22;38468;48.114;-1.684;2022-12-29T07:49:00;9.20;79.10
52575;DHT22;38468;48.114;-1.684;2022-12-29T07:51:00;9.20;79.30
52575;DHT22;38468;48.114;-1.684;2022-12-29T07:53:02;9.20;79.50
52575;DHT22;38468;48.114;-1.684;2022-12-29T07:55:03;9.20;79.60
52575;DHT22;38468;48.114;-1.684;2022-12-29T07:57:05;9.20;79.90
52575;DHT22;38468;48.114;-1.684;2022-12-29T07:59:06;9.20;80.10
52575;DHT22;38468;48.114;-1.684;2022-12-29T08:01:06;9.20;80.30
52575;DHT22;38468;48.114;-1.684;2022-12-29T08:03:07;9.10;80.30
52575;DHT22;38468;48.114;-1.684;2022-12-29T08:05:08;9.10;80.40
52575;DHT22;38468;48.114;-1.684;2022-12-29T08:07:08;9.10;80.40
52575;DHT22;38468;48.114;-1.684;2022-12-29T08:09:09;9.00;80.20
52575;DHT22;38468;48.114;-1.684;2022-12-29T08:11:10;9.10;80.00
52575;DHT22;38468;48.114;-1.684;2022-12-29T08:13:10;9.00;80.00
52575;DHT22;38468;48.114;-1.684;2022-12-29T08:15:12;9.00;80.10
52575;DHT22;38468;48.114;-1.684;2022-12-29T08:17:13;9.00;79.70
52575;DHT22;38468;48.114;-1.684;2022-12-29T08:19:14;9.00;79.60
52575;DHT22;38468;48.114;-1.684;2022-12-29T08:21:14;9.00;79.70
52575;DHT22;38468;48.114;-1.684;2022-12-29T08:23:15;9.00;79.50
52575;DHT22;38468;48.114;-1.684;2022-12-29T08:25:16;9.00;79.60
52575;DHT22;38468;48.114;-1.684;2022-12-29T08:27:17;9.00;79.30
52575;DHT22;38468;48.114;-1.684;2022-12-29T08:29:18;9.00;79.10
52575;DHT22;38468;48.114;-1.684;2022-12-29T08:31:24;9.00;79.10
52575;DHT22;38468;48.114;-1.684;2022-12-29T08:33:26;9.10;79.10
52575;DHT22;38468;48.114;-1.684;2022-12-29T08:35:26;9.10;78.80
52575;DHT22;38468;48.114;-1.684;2022-12-29T08:37:27;9.10;78.50
52575;DHT22;38468;48.114;-1.684;2022-12-29T08:39:28;9.10;78.50
52575;DHT22;38468;48.114;-1.684;2022-12-29T08:41:29;9.10;78.60
52575;DHT22;38468;48.114;-1.684;2022-12-29T08:43:29;9.10;78.70
52575;DHT22;38468;48.114;-1.684;2022-12-29T08:45:30;9.10;78.80
52575;DHT22;38468;48.114;-1.684;2022-12-29T08:47:31;9.10;78.50
52575;DHT22;38468;48.114;-1.684;2022-12-29T08:49:32;9.10;78.60
52575;DHT22;38468;48.114;-1.684;2022-12-29T08:51:33;9.10;78.60
52575;DHT22;38468;48.114;-1.684;2022-12-29T08:53:34;9.10;78.30
52575;DHT22;38468;48.114;-1.684;2022-12-29T08:55:35;9.10;78.20
52575;DHT22;38468;48.114;-1.684;2022-12-29T08:57:36;9.10;78.60
52575;DHT22;38468;48.114;-1.684;2022-12-29T08:59:36;9.10;78.70
52575;DHT22;38468;48.114;-1.684;2022-12-29T09:01:37;9.10;78.80
52575;DHT22;38468;48.114;-1.684;2022-12-29T09:03:41;9.10;79.00
52575;DHT22;38468;48.114;-1.684;2022-12-29T09:05:41;9.20;79.00
52575;DHT22;38468;48.114;-1.684;2022-12-29T09:07:42;9.30;78.80
52575;DHT22;38468;48.114;-1.684;2022-12-29T09:09:43;9.60;78.40
52575;DHT22;38468;48.114;-1.684;2022-12-29T09:11:44;10.30;76.70
52575;DHT22;38468;48.114;-1.684;2022-12-29T09:13:45;10.90;75.00
52575;DHT22;38468;48.114;-1.684;2022-12-29T09:15:47;11.50;73.60
52575;DHT22;38468;48.114;-1.684;2022-12-29T09:17:47;11.50;71.60
52575;DHT22;38468;48.114;-1.684;2022-12-29T09:19:48;11.10;72.70
52575;DHT22;38468;48.114;-1.684;2022-12-29T09:21:48;10.90;74.40
52575;DHT22;38468;48.114;-1.684;2022-12-29T09:23:49;10.50;75.20
52575;DHT22;38468;48.114;-1.684;2022-12-29T09:25:50;10.40;75.30
52575;DHT22;38468;48.114;-1.684;2022-12-29T09:27:51;10.10;76.50
52575;DHT22;38468;48.114;-1.684;2022-12-29T09:29:55;10.30;76.80
52575;DHT22;38468;48.114;-1.684;2022-12-29T09:31:56;10.30;76.00
52575;DHT22;38468;48.114;-1.684;2022-12-29T09:33:57;10.70;75.30
52575;DHT22;38468;48.114;-1.684;2022-12-29T09:35:58;10.80;74.10
52575;DHT22;38468;48.114;-1.684;2022-12-29T09:37:58;11.70;73.20
52575;DHT22;38468;48.114;-1.684;2022-12-29T09:39:59;12.10;70.40
52575;DHT22;38468;48.114;-1.684;2022-12-29T09:42:19;12.10;71.00
52575;DHT22;38468;48.114;-1.684;2022-12-29T09:46:37;13.50;67.40
52575;DHT22;38468;48.114;-1.684;2022-12-29T09:48:50;14.50;63.50
52575;DHT22;38468;48.114;-1.684;2022-12-29T09:51:06;15.00;61.70
52575;DHT22;38468;48.114;-1.684;2022-12-29T09:55:42;15.50;61.00
52575;DHT22;38468;48.114;-1.684;2022-12-29T10:00:56;15.00;62.10
52575;DHT22;38468;48.114;-1.684;2022-12-29T10:05:35;15.70;58.60
52575;DHT22;38468;48.114;-1.684;2022-12-29T10:12:58;17.00;56.00
52575;DHT22;38468;48.114;-1.684;2022-12-29T10:17:52;16.90;56.70
52575;DHT22;38468;48.114;-1.684;2022-12-29T10:20:31;17.90;53.80
52575;DHT22;38468;48.114;-1.684;2022-12-29T10:25:04;16.30;54.70
52575;DHT22;38468;48.114;-1.684;2022-12-29T10:27:13;16.70;54.50
52575;DHT22;38468;48.114;-1.684;2022-12-29T10:29:21;17.50;56.00
52575;DHT22;38468;48.114;-1.684;2022-12-29T10:31:43;17.50;52.30
52575;DHT22;38468;48.114;-1.684;2022-12-29T10:33:49;17.10;53.50
52575;DHT22;38468;48.114;-1.684;2022-12-29T10:35:51;17.80;52.30
52575;DHT22;38468;48.114;-1.684;2022-12-29T10:38:29;17.70;52.60
52575;DHT22;38468;48.114;-1.684;2022-12-29T10:40:50;17.50;50.90
52575;DHT22;38468;48.114;-1.684;2022-12-29T10:42:59;17.40;51.80
52575;DHT22;38468;48.114;-1.684;2022-12-29T10:45:10;18.20;50.40
52575;DHT22;38468;48.114;-1.684;2022-12-29T10:47:24;18.70;47.60
52575;DHT22;38468;48.114;-1.684;2022-12-29T10:49:32;18.20;48.40
52575;DHT22;38468;48.114;-1.684;2022-12-29T10:51:39;17.60;50.00
52575;DHT22;38468;48.114;-1.684;2022-12-29T10:53:59;18.10;49.00
52575;DHT22;38468;48.114;-1.684;2022-12-29T10:56:05;18.00;48.20
52575;DHT22;38468;48.114;-1.684;2022-12-29T10:58:17;19.10;47.60
52575;DHT22;38468;48.114;-1.684;2022-12-29T11:00:22;18.80;47.50
52575;DHT22;38468;48.114;-1.684;2022-12-29T11:05:41;17.00;50.00
52575;DHT22;38468;48.114;-1.684;2022-12-29T11:07:47;16.50;51.90
52575;DHT22;38468;48.114;-1.684;2022-12-29T11:09:50;16.30;52.00
52575;DHT22;38468;48.114;-1.684;2022-12-29T11:11:50;16.40;52.30
52575;DHT22;38468;48.114;-1.684;2022-12-29T11:14:02;15.90;52.10
52575;DHT22;38468;48.114;-1.684;2022-12-29T11:16:03;15.50;53.00
52575;DHT22;38468;48.114;-1.684;2022-12-29T11:18:04;15.70;54.10
52575;DHT22;38468;48.114;-1.684;2022-12-29T11:22:28;15.50;54.00
52575;DHT22;38468;48.114;-1.684;2022-12-29T11:24:36;16.00;53.50
52575;DHT22;38468;48.114;-1.684;2022-12-29T11:26:46;16.00;52.20
52575;DHT22;38468;48.114;-1.684;2022-12-29T11:31:09;15.90;52.90
52575;DHT22;38468;48.114;-1.684;2022-12-29T11:33:10;15.30;54.30
52575;DHT22;38468;48.114;-1.684;2022-12-29T11:35:37;15.70;53.10
52575;DHT22;38468;48.114;-1.684;2022-12-29T11:37:39;14.90;54.90
52575;DHT22;38468;48.114;-1.684;2022-12-29T11:39:43;14.20;56.20
52575;DHT22;38468;48.114;-1.684;2022-12-29T11:41:51;14.40;56.10
52575;DHT22;38468;48.114;-1.684;2022-12-29T11:43:56;14.50;56.30
52575;DHT22;38468;48.114;-1.684;2022-12-29T11:45:59;15.00;54.70
52575;DHT22;38468;48.114;-1.684;2022-12-29T11:48:16;14.80;55.80
52575;DHT22;38468;48.114;-1.684;2022-12-29T11:50:30;15.20;55.00
52575;DHT22;38468;48.114;-1.684;2022-12-29T11:52:39;14.60;55.90
52575;DHT22;38468;48.114;-1.684;2022-12-29T11:54:43;15.00;56.10
52575;DHT22;38468;48.114;-1.684;2022-12-29T11:56:50;15.10;55.50
52575;DHT22;38468;48.114;-1.684;2022-12-29T11:58:52;15.20;55.90
52575;DHT22;38468;48.114;-1.684;2022-12-29T12:00:53;15.90;53.60
52575;DHT22;38468;48.114;-1.684;2022-12-29T12:05:03;16.50;51.50
52575;DHT22;38468;48.114;-1.684;2022-12-29T12:07:45;17.40;51.00
52575;DHT22;38468;48.114;-1.684;2022-12-29T12:10:03;18.40;48.40
52575;DHT22;38468;48.114;-1.684;2022-12-29T12:12:05;18.60;47.80
52575;DHT22;38468;48.114;-1.684;2022-12-29T12:14:34;19.00;44.40
52575;DHT22;38468;48.114;-1.684;2022-12-29T12:16:45;19.40;45.40
52575;DHT22;38468;48.114;-1.684;2022-12-29T12:18:53;20.10;43.40
52575;DHT22;38468;48.114;-1.684;2022-12-29T12:21:10;20.20;42.70
52575;DHT22;38468;48.114;-1.684;2022-12-29T12:25:27;19.10;45.30
52575;DHT22;38468;48.114;-1.684;2022-12-29T12:27:38;19.00;45.70
52575;DHT22;38468;48.114;-1.684;2022-12-29T12:30:03;19.90;43.40
52575;DHT22;38468;48.114;-1.684;2022-12-29T12:32:35;18.50;45.10
52575;DHT22;38468;48.114;-1.684;2022-12-29T12:34:45;18.30;45.40
52575;DHT22;38468;48.114;-1.684;2022-12-29T12:39:18;19.00;44.80
52575;DHT22;38468;48.114;-1.684;2022-12-29T12:44:00;17.30;47.10
52575;DHT22;38468;48.114;-1.684;2022-12-29T12:46:27;16.60;49.40
52575;DHT22;38468;48.114;-1.684;2022-12-29T12:49:15;16.00;51.20
52575;DHT22;38468;48.114;-1.684;2022-12-29T12:55:44;14.30;56.00
52575;DHT22;38468;48.114;-1.684;2022-12-29T13:00:11;14.10;56.20
52575;DHT22;38468;48.114;-1.684;2022-12-29T13:04:53;13.70;58.30
52575;DHT22;38468;48.114;-1.684;2022-12-29T13:07:18;13.50;59.10
52575;DHT22;38468;48.114;-1.684;2022-12-29T13:20:54;13.00;61.60
52575;DHT22;38468;48.114;-1.684;2022-12-29T13:30:08;12.00;69.00
52575;DHT22;38468;48.114;-1.684;2022-12-29T13:34:49;11.50;70.60
52575;DHT22;38468;48.114;-1.684;2022-12-29T13:37:04;11.60;70.10
52575;DHT22;38468;48.114;-1.684;2022-12-29T13:39:24;11.60;70.70
52575;DHT22;38468;48.114;-1.684;2022-12-29T13:41:37;12.40;70.20
52575;DHT22;38468;48.114;-1.684;2022-12-29T13:43:42;13.60;67.30
52575;DHT22;38468;48.114;-1.684;2022-12-29T13:45:45;14.00;64.60
52575;DHT22;38468;48.114;-1.684;2022-12-29T13:47:51;13.20;66.60
52575;DHT22;38468;48.114;-1.684;2022-12-29T13:49:57;13.30;67.10
52575;DHT22;38468;48.114;-1.684;2022-12-29T13:52:48;14.20;64.00
52575;DHT22;38468;48.114;-1.684;2022-12-29T13:57:07;14.90;61.30
52575;DHT22;38468;48.114;-1.684;2022-12-29T14:02:01;15.80;58.90
52575;DHT22;38468;48.114;-1.684;2022-12-29T14:04:08;16.00;57.10
52575;DHT22;38468;48.114;-1.684;2022-12-29T14:06:28;16.10;56.70
52575;DHT22;38468;48.114;-1.684;2022-12-29T14:08:34;15.40;57.00
52575;DHT22;38468;48.114;-1.684;2022-12-29T14:10:47;15.50;58.00
52575;DHT22;38468;48.114;-1.684;2022-12-29T14:12:48;15.70;55.10
52575;DHT22;38468;48.114;-1.684;2022-12-29T14:14:50;14.80;57.30
52575;DHT22;38468;48.114;-1.684;2022-12-29T14:16:52;14.20;59.30
52575;DHT22;38468;48.114;-1.684;2022-12-29T14:18:53;14.00;59.90
52575;DHT22;38468;48.114;-1.684;2022-12-29T14:27:52;12.40;64.90
52575;DHT22;38468;48.114;-1.684;2022-12-29T14:29:53;12.80;63.90
52575;DHT22;38468;48.114;-1.684;2022-12-29T14:31:54;12.70;63.90
52575;DHT22;38468;48.114;-1.684;2022-12-29T14:36:26;13.40;63.00
52575;DHT22;38468;48.114;-1.684;2022-12-29T14:38:33;13.50;62.70
52575;DHT22;38468;48.114;-1.684;2022-12-29T14:40:45;13.40;63.00
52575;DHT22;38468;48.114;-1.684;2022-12-29T14:42:47;13.50;63.00
52575;DHT22;38468;48.114;-1.684;2022-12-29T14:45:05;13.70;62.60
52575;DHT22;38468;48.114;-1.684;2022-12-29T14:47:08;14.40;60.60
52575;DHT22;38468;48.114;-1.684;2022-12-29T14:49:18;14.90;59.60
52575;DHT22;38468;48.114;-1.684;2022-12-29T14:51:31;14.70;59.20
52575;DHT22;38468;48.114;-1.684;2022-12-29T14:55:54;14.30;61.20
52575;DHT22;38468;48.114;-1.684;2022-12-29T14:58:00;14.60;60.70
52575;DHT22;38468;48.114;-1.684;2022-12-29T15:00:33;15.10;60.60
52575;DHT22;38468;48.114;-1.684;2022-12-29T15:02:40;14.80;59.20